Time;durP1;ratioP1;P1;durP2;ratioP2;P2;SDS_P1;SDS_P2;PMS_P1;PMS_P2;Temp;Humidity;BMP_temperature;BMP_pressure;BME280_temperature;BME280_humidity;BME280_pressure;Samples;Min_cycle;Max_cycle;Signal;HPM_P1;HPM_P2
2023/11/12 00:01:44;;;;;;;;;;;20.60;67.50;;;;;;5003616;28;1434;-67
2023/11/12 00:04:10;;;;;;;;;;;20.60;67.50;;;;;;5000891;28;1684;-66
2023/11/12 00:06:38;;;;;;;;;;;20.60;67.50;;;;;;5002406;28;1400;-66
2023/11/12 00:09:04;;;;;;;;;;;20.60;67.50;;;;;;5012597;28;1958;-67
2023/11/12 00:11:33;;;;;;;;;;;20.60;67.50;;;;;;5000389;28;1654;-68
2023/11/12 00:13:58;;;;;;;;;;;20.60;67.60;;;;;;5002425;28;1281;-66
2023/11/12 00:16:24;;;;;;;;;;;20.60;67.60;;;;;;4999358;28;1441;-67
2023/11/12 00:18:50;;;;;;;;;;;20.60;67.60;;;;;;5005221;28;1315;-68
2023/11/12 00:21:16;;;;;;;;;;;20.60;68.30;;;;;;5003878;28;1380;-67
2023/11/12 00:23:41;;;;;;;;;;;20.60;67.60;;;;;;5005202;28;1442;-68
2023/11/12 00:26:06;;;;;;;;;;;20.60;67.60;;;;;;5003150;28;1318;-67
2023/11/12 00:28:32;;;;;;;;;;;20.60;67.60;;;;;;5001231;28;1898;-67
2023/11/12 00:30:58;;;;;;;;;;;20.60;67.60;;;;;;5002888;28;1458;-67
2023/11/12 00:33:23;;;;;;;;;;;20.60;67.60;;;;;;5003411;28;1361;-66
2023/11/12 00:35:49;;;;;;;;;;;20.60;67.60;;;;;;5000624;28;1158;-68
2023/11/12 00:38:14;;;;;;;;;;;20.60;67.60;;;;;;5002556;28;1240;-68
2023/11/12 00:40:40;;;;;;;;;;;20.60;67.60;;;;;;5001129;28;1361;-67
2023/11/12 00:43:05;;;;;;;;;;;20.60;67.60;;;;;;5001791;28;1319;-67
2023/11/12 00:45:31;;;;;;;;;;;20.60;67.60;;;;;;5001381;28;1282;-67
2023/11/12 00:47:57;;;;;;;;;;;20.60;67.70;;;;;;5002843;28;1996;-67
2023/11/12 00:50:22;;;;;;;;;;;20.50;67.60;;;;;;5003452;28;1338;-67
2023/11/12 00:52:48;;;;;;;;;;;20.50;67.60;;;;;;5000915;28;1349;-67
2023/11/12 00:55:13;;;;;;;;;;;20.60;67.70;;;;;;5003090;28;1294;-67
2023/11/12 00:57:39;;;;;;;;;;;20.50;67.60;;;;;;4999354;28;1468;-67
2023/11/12 01:00:05;;;;;;;;;;;20.50;67.60;;;;;;5001959;28;1470;-67
2023/11/12 01:02:31;;;;;;;;;;;20.50;67.70;;;;;;5001283;28;1483;-67
2023/11/12 01:04:57;;;;;;;;;;;20.50;67.60;;;;;;5001340;28;1267;-67
2023/11/12 01:07:22;;;;;;;;;;;20.50;67.60;;;;;;5000685;28;1506;-66
2023/11/12 01:09:50;;;;;;;;;;;20.50;68.00;;;;;;5000213;28;1918;-67
2023/11/12 01:12:15;;;;;;;;;;;20.50;67.60;;;;;;5001551;28;1473;-67
2023/11/12 01:14:41;;;;;;;;;;;20.50;67.70;;;;;;5000559;28;1346;-66
2023/11/12 01:17:06;;;;;;;;;;;20.50;67.70;;;;;;4999038;28;1540;-67
2023/11/12 01:19:32;;;;;;;;;;;20.50;67.60;;;;;;5002778;28;1405;-66
2023/11/12 01:21:58;;;;;;;;;;;20.50;67.70;;;;;;5001304;28;1272;-66
2023/11/12 01:24:25;;;;;;;;;;;20.50;67.70;;;;;;5002533;28;1409;-66
2023/11/12 01:26:51;;;;;;;;;;;20.50;67.70;;;;;;5000945;28;1458;-66
2023/11/12 01:29:16;;;;;;;;;;;20.50;67.70;;;;;;4997999;28;1978;-67
2023/11/12 01:31:42;;;;;;;;;;;20.50;67.70;;;;;;5005600;28;1524;-66
2023/11/12 01:34:08;;;;;;;;;;;20.50;67.70;;;;;;5003932;28;1233;-66
2023/11/12 01:36:33;;;;;;;;;;;20.50;67.70;;;;;;5003359;28;1496;-67
2023/11/12 01:38:59;;;;;;;;;;;20.50;67.70;;;;;;5004148;28;1352;-67
2023/11/12 01:41:24;;;;;;;;;;;20.50;67.80;;;;;;5002343;28;1660;-66
2023/11/12 01:43:49;;;;;;;;;;;20.50;67.70;;;;;;5006677;28;1482;-67
2023/11/12 01:46:15;;;;;;;;;;;20.50;67.70;;;;;;5003895;28;1347;-67
2023/11/12 01:48:41;;;;;;;;;;;20.50;67.70;;;;;;4999614;28;2025;-67
2023/11/12 01:51:06;;;;;;;;;;;20.50;67.70;;;;;;4999028;28;1314;-67
2023/11/12 01:53:32;;;;;;;;;;;20.50;67.70;;;;;;4996243;28;1312;-66
2023/11/12 01:55:58;;;;;;;;;;;20.50;67.80;;;;;;5003001;28;1520;-66
2023/11/12 01:58:24;;;;;;;;;;;20.50;67.80;;;;;;4998872;28;1319;-66
2023/11/12 02:00:49;;;;;;;;;;;20.50;67.80;;;;;;5001634;28;1329;-67
2023/11/12 02:03:15;;;;;;;;;;;20.50;67.80;;;;;;4999924;28;1280;-67
2023/11/12 02:05:41;;;;;;;;;;;20.50;67.80;;;;;;5017401;28;1294;-67
2023/11/12 02:08:07;;;;;;;;;;;20.50;67.80;;;;;;5002579;28;1998;-66
2023/11/12 02:10:36;;;;;;;;;;;20.50;67.80;;;;;;5000028;28;1370;-67
2023/11/12 02:13:04;;;;;;;;;;;20.50;67.80;;;;;;5003262;28;1297;-67
2023/11/12 02:15:30;;;;;;;;;;;20.50;67.80;;;;;;5002895;28;1224;-67
2023/11/12 02:17:57;;;;;;;;;;;20.50;67.80;;;;;;5015263;28;1395;-67
2023/11/12 02:20:22;;;;;;;;;;;20.40;67.80;;;;;;5001202;28;1196;-67
2023/11/12 02:22:48;;;;;;;;;;;20.50;67.80;;;;;;4997789;28;1368;-67
2023/11/12 02:25:13;;;;;;;;;;;20.40;67.80;;;;;;4998931;28;1849;-68
2023/11/12 02:27:39;;;;;;;;;;;20.40;67.80;;;;;;4997027;28;1268;-68
2023/11/12 02:30:08;;;;;;;;;;;20.40;67.80;;;;;;5000587;28;1970;-67
2023/11/12 02:32:35;;;;;;;;;;;20.40;67.80;;;;;;4999755;28;1481;-67
2023/11/12 02:35:02;;;;;;;;;;;20.50;67.80;;;;;;4997746;28;1452;-67
2023/11/12 02:37:28;;;;;;;;;;;20.50;67.80;;;;;;5002749;28;1473;-67
2023/11/12 02:39:53;;;;;;;;;;;20.40;67.80;;;;;;5000194;28;1356;-65
2023/11/12 02:42:19;;;;;;;;;;;20.40;67.80;;;;;;5018347;28;1387;-66
2023/11/12 02:44:44;;;;;;;;;;;20.40;67.80;;;;;;4999689;28;1373;-66
2023/11/12 02:47:10;;;;;;;;;;;20.40;67.80;;;;;;5002557;28;1275;-66
2023/11/12 02:49:54;;;;;;;;;;;20.40;67.80;;;;;;5003779;28;1935;-66
2023/11/12 02:52:19;;;;;;;;;;;20.40;67.80;;;;;;5003714;28;1419;-65
2023/11/12 02:54:45;;;;;;;;;;;20.40;67.80;;;;;;5001973;28;1606;-65
2023/11/12 02:57:10;;;;;;;;;;;20.40;67.90;;;;;;5002406;28;1555;-65
2023/11/12 02:59:35;;;;;;;;;;;20.40;67.80;;;;;;5004524;28;1489;-65
2023/11/12 03:02:01;;;;;;;;;;;20.40;67.90;;;;;;5001071;28;1532;-65
2023/11/12 03:04:26;;;;;;;;;;;20.40;67.90;;;;;;5007023;28;1387;-66
2023/11/12 03:06:52;;;;;;;;;;;20.40;67.90;;;;;;5002750;28;1461;-65
2023/11/12 03:09:17;;;;;;;;;;;20.40;67.90;;;;;;5007131;28;1910;-65
2023/11/12 03:11:43;;;;;;;;;;;20.40;67.90;;;;;;5006293;28;1410;-65
2023/11/12 03:14:08;;;;;;;;;;;20.40;67.90;;;;;;5005501;28;1466;-65
2023/11/12 03:16:34;;;;;;;;;;;20.40;67.90;;;;;;5003208;28;1654;-65
2023/11/12 03:19:00;;;;;;;;;;;20.40;67.90;;;;;;5005207;28;1325;-65
2023/11/12 03:21:26;;;;;;;;;;;20.40;67.90;;;;;;5001479;28;1253;-65
2023/11/12 03:23:51;;;;;;;;;;;20.40;67.90;;;;;;5002442;28;880;-66
2023/11/12 03:26:17;;;;;;;;;;;20.40;67.90;;;;;;5004820;28;1236;-66
2023/11/12 03:28:42;;;;;;;;;;;20.40;67.90;;;;;;5003797;28;1968;-66
2023/11/12 03:31:08;;;;;;;;;;;20.40;67.90;;;;;;5005138;28;1487;-66
2023/11/12 03:33:35;;;;;;;;;;;20.40;67.90;;;;;;5005724;28;1438;-67
2023/11/12 03:36:00;;;;;;;;;;;20.40;67.90;;;;;;5004186;28;1314;-66
2023/11/12 03:38:26;;;;;;;;;;;20.40;67.90;;;;;;5006988;28;1465;-66
2023/11/12 03:40:51;;;;;;;;;;;20.40;67.90;;;;;;5002454;28;1525;-67
2023/11/12 03:43:17;;;;;;;;;;;20.40;68.00;;;;;;5005348;28;1432;-66
2023/11/12 03:45:42;;;;;;;;;;;20.40;68.00;;;;;;5002258;28;1382;-66
2023/11/12 03:48:10;;;;;;;;;;;20.40;68.00;;;;;;5002083;28;1962;-66
2023/11/12 03:50:36;;;;;;;;;;;20.40;68.00;;;;;;5004197;28;1421;-66
2023/11/12 03:53:01;;;;;;;;;;;20.40;68.00;;;;;;5003797;28;1348;-66
2023/11/12 03:55:27;;;;;;;;;;;20.40;68.00;;;;;;5002954;28;1279;-66
2023/11/12 03:57:52;;;;;;;;;;;20.40;68.00;;;;;;5002775;28;1579;-66
2023/11/12 04:00:17;;;;;;;;;;;20.40;68.00;;;;;;5002253;28;1412;-66
2023/11/12 04:02:44;;;;;;;;;;;20.40;68.00;;;;;;5002863;28;1394;-66
2023/11/12 04:05:09;;;;;;;;;;;20.40;68.00;;;;;;5001911;28;1285;-65
2023/11/12 04:07:35;;;;;;;;;;;20.40;68.00;;;;;;5005441;28;1259;-66
2023/11/12 04:10:00;;;;;;;;;;;20.40;68.00;;;;;;5001911;28;1898;-66
2023/11/12 04:12:26;;;;;;;;;;;20.40;68.00;;;;;;5004464;28;1297;-65
2023/11/12 04:14:52;;;;;;;;;;;20.40;68.00;;;;;;5002966;28;1449;-65
2023/11/12 04:17:17;;;;;;;;;;;20.40;68.00;;;;;;5000864;28;1318;-66
2023/11/12 04:19:43;;;;;;;;;;;20.40;68.00;;;;;;4986153;28;1335;-66
2023/11/12 04:22:09;;;;;;;;;;;20.40;68.10;;;;;;5003778;28;1355;-66
2023/11/12 04:24:34;;;;;;;;;;;20.40;68.10;;;;;;5001458;28;1494;-66
2023/11/12 04:27:00;;;;;;;;;;;20.40;68.10;;;;;;5003513;28;1405;-65
2023/11/12 04:29:26;;;;;;;;;;;20.30;68.00;;;;;;5002299;28;1906;-65
2023/11/12 04:31:52;;;;;;;;;;;20.40;68.00;;;;;;5003739;28;1554;-66
2023/11/12 04:34:17;;;;;;;;;;;20.40;68.10;;;;;;5003315;28;1300;-65
2023/11/12 04:36:44;;;;;;;;;;;20.40;68.10;;;;;;5004822;28;1368;-65
2023/11/12 04:39:09;;;;;;;;;;;20.40;68.10;;;;;;5001315;28;934;-66
2023/11/12 04:41:35;;;;;;;;;;;20.40;68.10;;;;;;5003459;28;1586;-65
2023/11/12 04:44:00;;;;;;;;;;;20.40;68.10;;;;;;4997226;28;1373;-66
2023/11/12 04:46:26;;;;;;;;;;;20.30;68.10;;;;;;5001835;28;1467;-66
2023/11/12 04:48:52;;;;;;;;;;;20.30;68.10;;;;;;5000072;28;1957;-68
2023/11/12 04:51:17;;;;;;;;;;;20.30;68.10;;;;;;4995778;28;1905;-68
2023/11/12 04:53:43;;;;;;;;;;;20.30;68.00;;;;;;5001213;28;1389;-66
2023/11/12 04:56:09;;;;;;;;;;;20.30;68.00;;;;;;5001246;28;1478;-67
2023/11/12 04:58:34;;;;;;;;;;;20.30;68.10;;;;;;5004371;28;1571;-66
2023/11/12 05:01:00;;;;;;;;;;;20.30;68.00;;;;;;5001720;28;1459;-67
2023/11/12 05:03:25;;;;;;;;;;;20.30;68.10;;;;;;4999281;28;1395;-67
2023/11/12 05:05:51;;;;;;;;;;;20.40;68.10;;;;;;5002031;28;1409;-67
2023/11/12 05:08:16;;;;;;;;;;;20.40;68.10;;;;;;5002080;28;1936;-66
2023/11/12 05:10:42;;;;;;;;;;;20.30;68.10;;;;;;5001460;28;1204;-68
2023/11/12 05:13:08;;;;;;;;;;;20.30;68.10;;;;;;5002681;28;1343;-69
2023/11/12 05:15:34;;;;;;;;;;;20.30;68.10;;;;;;4996993;28;1349;-67
2023/11/12 05:18:05;;;;;;;;;;;20.30;68.10;;;;;;5002127;28;1446;-67
2023/11/12 05:20:32;;;;;;;;;;;20.30;68.10;;;;;;5001952;28;1238;-67
2023/11/12 05:22:58;;;;;;;;;;;20.30;68.10;;;;;;5002579;28;1475;-67
2023/11/12 05:25:23;;;;;;;;;;;20.30;68.10;;;;;;5002014;28;1500;-68
2023/11/12 05:27:48;;;;;;;;;;;20.30;68.10;;;;;;4997525;28;1601;-68
2023/11/12 05:30:14;;;;;;;;;;;20.30;68.10;;;;;;5000966;28;1976;-66
2023/11/12 05:32:39;;;;;;;;;;;20.30;68.10;;;;;;5000970;28;1671;-69
2023/11/12 05:35:05;;;;;;;;;;;20.30;68.10;;;;;;4998493;28;1527;-67
2023/11/12 05:37:31;;;;;;;;;;;20.30;68.10;;;;;;5000596;28;1331;-67
2023/11/12 05:39:56;;;;;;;;;;;20.30;68.10;;;;;;5002271;28;1383;-68
2023/11/12 05:42:21;;;;;;;;;;;20.30;68.10;;;;;;5001336;28;1347;-68
2023/11/12 05:44:47;;;;;;;;;;;20.30;68.10;;;;;;4997866;28;1116;-67
2023/11/12 05:47:12;;;;;;;;;;;20.30;68.10;;;;;;5001436;28;1331;-68
2023/11/12 05:49:38;;;;;;;;;;;20.30;68.20;;;;;;5002533;28;1914;-67
2023/11/12 05:52:04;;;;;;;;;;;20.30;68.20;;;;;;5001329;28;1387;-67
2023/11/12 05:54:29;;;;;;;;;;;20.30;68.20;;;;;;5001126;28;1514;-66
2023/11/12 05:56:55;;;;;;;;;;;20.30;68.10;;;;;;5006307;28;1352;-64
2023/11/12 05:59:21;;;;;;;;;;;20.30;68.10;;;;;;4998730;28;1251;-65
2023/11/12 06:01:46;;;;;;;;;;;20.30;68.10;;;;;;5002238;28;1457;-66
2023/11/12 06:04:12;;;;;;;;;;;20.30;68.20;;;;;;4999706;28;1325;-66
2023/11/12 06:06:39;;;;;;;;;;;20.30;68.20;;;;;;4999337;28;959;-66
2023/11/12 06:09:05;;;;;;;;;;;20.30;68.20;;;;;;5002550;28;1906;-67
2023/11/12 06:11:30;;;;;;;;;;;20.30;68.20;;;;;;5002501;28;1269;-67
2023/11/12 06:13:56;;;;;;;;;;;20.30;68.20;;;;;;5002758;28;975;-66
2023/11/12 06:16:21;;;;;;;;;;;20.30;68.20;;;;;;5002392;28;1390;-66
2023/11/12 06:18:48;;;;;;;;;;;20.30;68.20;;;;;;5003918;28;1560;-67
2023/11/12 06:21:14;;;;;;;;;;;20.30;68.20;;;;;;5006086;28;1375;-68
2023/11/12 06:23:43;;;;;;;;;;;20.30;68.20;;;;;;5005794;28;1485;-66
2023/11/12 06:26:09;;;;;;;;;;;20.30;68.20;;;;;;5004245;28;1377;-67
2023/11/12 06:28:36;;;;;;;;;;;20.30;68.20;;;;;;5003967;28;1898;-67
2023/11/12 06:31:01;;;;;;;;;;;20.30;68.20;;;;;;5004437;28;1919;-68
2023/11/12 06:33:27;;;;;;;;;;;20.30;68.20;;;;;;5005402;28;1480;-66
2023/11/12 06:35:52;;;;;;;;;;;20.30;68.20;;;;;;5005204;28;1433;-66
2023/11/12 06:38:18;;;;;;;;;;;20.30;68.20;;;;;;5001832;28;1983;-67
2023/11/12 06:40:43;;;;;;;;;;;20.30;68.20;;;;;;5002478;28;1469;-66
2023/11/12 06:43:08;;;;;;;;;;;20.30;68.30;;;;;;5003657;28;1688;-67
2023/11/12 06:45:34;;;;;;;;;;;20.20;68.20;;;;;;5006491;28;1370;-66
2023/11/12 06:47:59;;;;;;;;;;;20.30;68.30;;;;;;5004358;28;1314;-67
2023/11/12 06:50:25;;;;;;;;;;;20.20;68.20;;;;;;5005127;28;1995;-67
2023/11/12 06:52:50;;;;;;;;;;;20.30;68.20;;;;;;5004308;28;1390;-66
2023/11/12 06:55:16;;;;;;;;;;;20.30;65.70;;;;;;5004203;28;1464;-66
2023/11/12 06:57:41;;;;;;;;;;;20.30;63.20;;;;;;5002938;28;1281;-65
2023/11/12 07:00:08;;;;;;;;;;;20.30;62.40;;;;;;5005020;28;1411;-66
2023/11/12 07:02:34;;;;;;;;;;;20.30;63.00;;;;;;5004769;28;1318;-65
2023/11/12 07:04:59;;;;;;;;;;;20.20;63.40;;;;;;5005222;28;1486;-65
2023/11/12 07:07:25;;;;;;;;;;;20.20;63.60;;;;;;4998526;28;1548;-66
2023/11/12 07:09:52;;;;;;;;;;;20.20;63.70;;;;;;5003882;28;1977;-66
2023/11/12 07:12:17;;;;;;;;;;;20.20;63.90;;;;;;5005702;28;1547;-66
2023/11/12 07:14:43;;;;;;;;;;;20.20;64.00;;;;;;5005306;28;1369;-66
2023/11/12 07:17:08;;;;;;;;;;;20.20;64.20;;;;;;5003575;28;1380;-66
2023/11/12 07:19:33;;;;;;;;;;;20.30;64.50;;;;;;5004867;28;1242;-65
2023/11/12 07:21:59;;;;;;;;;;;20.30;64.70;;;;;;5003427;28;1386;-67
2023/11/12 07:24:25;;;;;;;;;;;20.30;64.80;;;;;;5002473;28;1376;-68
2023/11/12 07:26:51;;;;;;;;;;;20.30;64.80;;;;;;5001299;28;1481;-66
2023/11/12 07:29:16;;;;;;;;;;;20.30;64.90;;;;;;5003763;28;1973;-65
2023/11/12 07:31:42;;;;;;;;;;;20.40;65.10;;;;;;5001864;28;1383;-65
2023/11/12 07:34:08;;;;;;;;;;;20.40;65.10;;;;;;5003218;28;1692;-66
2023/11/12 07:36:33;;;;;;;;;;;20.40;65.10;;;;;;5003023;28;1363;-67
2023/11/12 07:39:01;;;;;;;;;;;20.40;65.10;;;;;;5001596;28;1264;-66
2023/11/12 07:41:30;;;;;;;;;;;20.40;65.20;;;;;;5003557;28;1363;-66
2023/11/12 07:43:56;;;;;;;;;;;20.40;65.20;;;;;;5002468;28;1172;-67
2023/11/12 07:46:22;;;;;;;;;;;20.50;65.20;;;;;;5003456;28;1228;-66
2023/11/12 07:48:50;;;;;;;;;;;20.50;65.20;;;;;;5001112;28;1973;-67
2023/11/12 07:51:16;;;;;;;;;;;20.50;65.20;;;;;;5001877;28;1450;-66
2023/11/12 07:53:41;;;;;;;;;;;20.50;65.20;;;;;;5005313;28;1542;-67
2023/11/12 07:56:09;;;;;;;;;;;20.50;65.20;;;;;;5000614;28;1402;-68
2023/11/12 07:58:35;;;;;;;;;;;20.50;65.20;;;;;;5005206;28;1338;-68
2023/11/12 08:01:01;;;;;;;;;;;20.60;65.30;;;;;;5001465;28;1449;-68
2023/11/12 08:03:26;;;;;;;;;;;20.60;65.30;;;;;;5003927;28;1345;-68
2023/11/12 08:05:52;;;;;;;;;;;20.60;65.30;;;;;;5003907;28;2097;-68
2023/11/12 08:08:17;;;;;;;;;;;20.60;65.30;;;;;;4999998;28;1964;-68
2023/11/12 08:10:43;;;;;;;;;;;20.60;65.30;;;;;;5005794;28;1414;-68
2023/11/12 08:13:08;;;;;;;;;;;20.60;65.30;;;;;;5005397;28;1397;-67
2023/11/12 08:15:34;;;;;;;;;;;20.60;65.30;;;;;;5001701;28;1365;-67
2023/11/12 08:17:59;;;;;;;;;;;20.60;65.30;;;;;;5001233;28;1386;-68
2023/11/12 08:20:25;;;;;;;;;;;20.60;65.30;;;;;;5004991;28;1338;-67
2023/11/12 08:22:50;;;;;;;;;;;20.70;65.30;;;;;;5006082;28;1248;-67
2023/11/12 08:25:16;;;;;;;;;;;20.70;65.40;;;;;;5003294;28;1483;-67
2023/11/12 08:27:42;;;;;;;;;;;20.60;65.30;;;;;;5003875;28;1653;-68
2023/11/12 08:30:07;;;;;;;;;;;20.60;65.30;;;;;;5003358;28;1962;-68
2023/11/12 08:32:34;;;;;;;;;;;20.70;65.60;;;;;;5001227;28;1523;-68
2023/11/12 08:35:00;;;;;;;;;;;20.70;65.40;;;;;;4998935;28;1488;-68
2023/11/12 08:37:28;;;;;;;;;;;20.70;65.40;;;;;;4999445;28;1375;-68
2023/11/12 08:39:54;;;;;;;;;;;20.70;65.40;;;;;;5003206;28;1320;-69
2023/11/12 08:42:19;;;;;;;;;;;20.70;65.40;;;;;;5003501;28;1349;-70
2023/11/12 08:44:48;;;;;;;;;;;20.70;65.40;;;;;;5004910;28;1261;-67
2023/11/12 08:47:13;;;;;;;;;;;20.70;65.40;;;;;;5001198;28;951;-67
2023/11/12 08:49:39;;;;;;;;;;;20.70;65.50;;;;;;5000815;28;1902;-67
2023/11/12 08:52:04;;;;;;;;;;;20.70;65.40;;;;;;5003318;28;2132;-67
2023/11/12 08:54:30;;;;;;;;;;;20.60;65.40;;;;;;5002165;28;1054;-67
2023/11/12 08:56:55;;;;;;;;;;;20.70;65.50;;;;;;5003265;28;868;-67
2023/11/12 08:59:22;;;;;;;;;;;20.70;65.50;;;;;;4998576;28;1049;-67
2023/11/12 09:01:48;;;;;;;;;;;20.70;65.50;;;;;;5001096;28;1264;-67
2023/11/12 09:04:13;;;;;;;;;;;20.70;65.50;;;;;;5001264;28;1669;-68
2023/11/12 09:06:39;;;;;;;;;;;20.70;65.50;;;;;;5003813;28;1450;-68
2023/11/12 09:09:05;;;;;;;;;;;20.70;65.50;;;;;;5002271;28;1910;-67
2023/11/12 09:11:31;;;;;;;;;;;20.70;65.50;;;;;;5001943;28;1472;-69
2023/11/12 09:14:00;;;;;;;;;;;20.70;65.50;;;;;;5008050;28;1470;-68
2023/11/12 09:16:26;;;;;;;;;;;20.70;65.50;;;;;;5003476;28;1313;-67
2023/11/12 09:18:51;;;;;;;;;;;20.70;65.50;;;;;;5001959;28;1456;-67
2023/11/12 09:21:19;;;;;;;;;;;20.70;65.50;;;;;;5009397;28;1389;-66
2023/11/12 09:23:45;;;;;;;;;;;20.70;65.50;;;;;;4995688;28;1590;-66
2023/11/12 09:26:20;;;;;;;;;;;20.70;65.50;;;;;;4999655;28;1322;-68
2023/11/12 09:28:46;;;;;;;;;;;20.70;65.50;;;;;;5001358;28;2081;-66
2023/11/12 09:31:12;;;;;;;;;;;20.70;65.50;;;;;;5001802;28;1706;-67
2023/11/12 09:33:38;;;;;;;;;;;20.70;65.50;;;;;;5001216;28;1265;-67
2023/11/12 09:36:04;;;;;;;;;;;20.70;65.50;;;;;;5002322;28;1319;-68
2023/11/12 09:38:29;;;;;;;;;;;20.70;65.50;;;;;;5002114;28;1245;-68
2023/11/12 09:40:55;;;;;;;;;;;20.70;65.50;;;;;;5004076;28;1293;-68
2023/11/12 09:43:22;;;;;;;;;;;20.70;65.50;;;;;;5002697;28;1277;-67
2023/11/12 09:45:49;;;;;;;;;;;20.70;65.50;;;;;;5015969;28;1408;-68
2023/11/12 09:48:47;;;;;;;;;;;20.70;65.50;;;;;;5016243;28;1399;-67
2023/11/12 09:51:12;;;;;;;;;;;20.70;65.50;;;;;;4969633;28;1391;-68
2023/11/12 09:53:42;;;;;;;;;;;20.70;65.50;;;;;;4978855;28;1950;-68
2023/11/12 09:56:11;;;;;;;;;;;20.70;65.60;;;;;;5001796;28;1593;-67
2023/11/12 09:58:37;;;;;;;;;;;20.70;65.50;;;;;;5004808;28;1399;-69
2023/11/12 10:01:03;;;;;;;;;;;20.70;65.60;;;;;;5021467;28;1434;-67
2023/11/12 10:03:28;;;;;;;;;;;20.70;65.60;;;;;;5005121;28;1379;-68
2023/11/12 10:05:54;;;;;;;;;;;20.70;65.50;;;;;;5003832;28;1405;-68
2023/11/12 10:08:20;;;;;;;;;;;20.70;65.50;;;;;;4997922;28;1973;-68
2023/11/12 10:10:47;;;;;;;;;;;20.70;65.50;;;;;;5004451;28;1634;-68
2023/11/12 10:13:13;;;;;;;;;;;20.70;65.50;;;;;;5002539;28;1284;-67
2023/11/12 10:15:39;;;;;;;;;;;20.70;65.50;;;;;;5007818;28;1502;-68
2023/11/12 10:18:05;;;;;;;;;;;20.70;65.50;;;;;;5003045;28;1363;-67
2023/11/12 10:20:31;;;;;;;;;;;20.70;65.50;;;;;;5004567;28;1353;-69
2023/11/12 10:22:57;;;;;;;;;;;20.70;65.50;;;;;;5003878;28;1311;-69
2023/11/12 10:25:37;;;;;;;;;;;20.70;65.50;;;;;;5005102;28;1326;-69
2023/11/12 10:28:04;;;;;;;;;;;20.70;65.50;;;;;;5005642;28;1454;-68
2023/11/12 10:30:29;;;;;;;;;;;20.70;65.50;;;;;;5003145;28;2045;-67
2023/11/12 10:33:00;;;;;;;;;;;20.70;65.50;;;;;;5007198;28;1285;-68
2023/11/12 10:35:26;;;;;;;;;;;20.70;65.50;;;;;;5003947;28;1474;-68
2023/11/12 10:38:00;;;;;;;;;;;20.70;65.50;;;;;;5001190;28;1416;-67
2023/11/12 10:40:25;;;;;;;;;;;20.70;65.50;;;;;;5004190;28;1585;-68
2023/11/12 10:42:58;;;;;;;;;;;20.70;65.50;;;;;;5003113;28;1523;-70
2023/11/12 10:45:23;;;;;;;;;;;20.70;65.50;;;;;;5002878;28;1237;-67
2023/11/12 10:47:49;;;;;;;;;;;20.70;65.40;;;;;;5004354;28;1506;-68
2023/11/12 10:50:15;;;;;;;;;;;20.70;65.40;;;;;;5002884;28;1915;-67
2023/11/12 10:52:42;;;;;;;;;;;20.70;65.40;;;;;;5004211;28;1406;-67
2023/11/12 10:55:08;;;;;;;;;;;20.70;65.40;;;;;;5003174;28;1383;-67
2023/11/12 10:57:35;;;;;;;;;;;20.70;65.40;;;;;;5005290;28;1371;-68
2023/11/12 11:00:00;;;;;;;;;;;20.70;66.20;;;;;;5006963;28;1343;-67
2023/11/12 11:02:29;;;;;;;;;;;20.80;65.50;;;;;;5009123;28;1564;-68
2023/11/12 11:04:55;;;;;;;;;;;20.70;65.40;;;;;;5002989;28;1460;-69
2023/11/12 11:07:21;;;;;;;;;;;20.70;65.40;;;;;;4983525;28;1495;-68
2023/11/12 11:09:47;;;;;;;;;;;20.70;65.50;;;;;;5018455;28;1985;-69
2023/11/12 11:12:13;;;;;;;;;;;20.70;65.50;;;;;;4999789;28;1631;-69
2023/11/12 11:14:38;;;;;;;;;;;20.70;65.50;;;;;;5002777;28;1388;-69
2023/11/12 11:17:08;;;;;;;;;;;20.70;65.50;;;;;;5000453;28;1375;-68
2023/11/12 11:19:48;;;;;;;;;;;20.70;65.50;;;;;;5004124;28;1441;-69
2023/11/12 11:22:31;;;;;;;;;;;20.70;65.50;;;;;;5004805;28;1353;-68
2023/11/12 11:24:57;;;;;;;;;;;20.70;65.50;;;;;;5003443;28;1312;-69
2023/11/12 11:27:25;;;;;;;;;;;20.70;65.50;;;;;;5003130;28;1343;-69
2023/11/12 11:30:16;;;;;;;;;;;20.70;65.50;;;;;;5000529;28;1914;-68
2023/11/12 11:32:54;;;;;;;;;;;20.70;65.50;;;;;;5001105;28;1469;-69
2023/11/12 11:35:21;;;;;;;;;;;20.70;65.50;;;;;;5001819;28;1239;-69
2023/11/12 11:38:09;;;;;;;;;;;20.70;65.50;;;;;;5003790;28;1317;-69
2023/11/12 11:40:35;;;;;;;;;;;20.70;65.50;;;;;;5003448;28;1193;-69
2023/11/12 11:43:20;;;;;;;;;;;20.70;65.50;;;;;;5001177;28;1394;-69
2023/11/12 11:46:18;;;;;;;;;;;20.70;65.50;;;;;;5004725;28;1264;-68
2023/11/12 11:48:43;;;;;;;;;;;20.70;65.60;;;;;;4999062;28;1902;-69
2023/11/12 11:51:27;;;;;;;;;;;20.70;65.50;;;;;;5002672;28;1415;-68
2023/11/12 11:53:53;;;;;;;;;;;20.70;65.60;;;;;;5003687;28;1293;-68
2023/11/12 11:56:20;;;;;;;;;;;20.70;65.60;;;;;;5001582;28;1466;-69
2023/11/12 11:58:48;;;;;;;;;;;20.70;65.60;;;;;;5002486;28;1300;-68
2023/11/12 12:01:14;;;;;;;;;;;20.70;65.60;;;;;;5002932;28;1151;-69
2023/11/12 12:03:39;;;;;;;;;;;20.70;65.60;;;;;;5010935;28;1403;-68
2023/11/12 12:06:17;;;;;;;;;;;20.70;65.60;;;;;;5004320;28;1198;-68
2023/11/12 12:08:50;;;;;;;;;;;20.70;65.60;;;;;;5004770;28;1910;-69
2023/11/12 12:11:16;;;;;;;;;;;20.70;65.60;;;;;;5002958;28;1009;-70
2023/11/12 12:13:54;;;;;;;;;;;20.70;65.60;;;;;;5001516;28;1294;-69
2023/11/12 12:16:29;;;;;;;;;;;20.70;65.60;;;;;;4998375;28;1373;-69
2023/11/12 12:18:55;;;;;;;;;;;20.70;65.60;;;;;;5007592;28;1280;-68
2023/11/12 12:21:20;;;;;;;;;;;20.70;65.60;;;;;;5005776;28;1462;-69
2023/11/12 12:23:46;;;;;;;;;;;20.70;65.60;;;;;;5002887;28;2288;-67
2023/11/12 12:26:11;;;;;;;;;;;20.70;65.70;;;;;;5005874;28;1459;-67
2023/11/12 12:28:37;;;;;;;;;;;20.70;65.60;;;;;;5002284;28;1902;-68
2023/11/12 12:31:02;;;;;;;;;;;20.70;65.60;;;;;;4999414;28;1460;-67
2023/11/12 12:33:30;;;;;;;;;;;20.70;65.60;;;;;;5000480;28;1441;-67
2023/11/12 12:35:57;;;;;;;;;;;20.70;65.70;;;;;;5005270;28;1257;-67
2023/11/12 12:38:22;;;;;;;;;;;20.70;65.70;;;;;;5002384;28;1365;-67
2023/11/12 12:40:59;;;;;;;;;;;20.70;65.60;;;;;;5002547;28;1463;-68
2023/11/12 12:43:24;;;;;;;;;;;20.70;65.60;;;;;;5002097;28;1532;-67
2023/11/12 12:45:56;;;;;;;;;;;20.70;65.70;;;;;;5002402;28;1399;-67
2023/11/12 12:48:24;;;;;;;;;;;20.70;65.70;;;;;;5005005;28;1398;-66
2023/11/12 12:50:57;;;;;;;;;;;20.70;65.70;;;;;;5000486;28;1215;-68
2023/11/12 12:53:23;;;;;;;;;;;20.70;65.70;;;;;;5001670;28;1403;-67
2023/11/12 12:55:49;;;;;;;;;;;20.70;65.60;;;;;;5002692;28;1360;-67
2023/11/12 12:58:14;;;;;;;;;;;20.70;65.70;;;;;;5003687;28;1319;-67
2023/11/12 13:00:40;;;;;;;;;;;20.70;65.60;;;;;;5006169;28;1482;-67
2023/11/12 13:03:26;;;;;;;;;;;20.70;65.60;;;;;;5001749;28;1260;-67
2023/11/12 13:05:51;;;;;;;;;;;20.70;65.60;;;;;;5002443;28;1384;-67
2023/11/12 13:08:18;;;;;;;;;;;20.70;65.60;;;;;;4998274;28;1379;-68
2023/11/12 13:10:43;;;;;;;;;;;20.70;65.70;;;;;;5006719;28;1969;-67
2023/11/12 13:13:08;;;;;;;;;;;20.70;65.70;;;;;;5000672;28;1501;-67
2023/11/12 13:15:34;;;;;;;;;;;20.70;65.70;;;;;;5001376;28;1260;-68
2023/11/12 13:17:59;;;;;;;;;;;20.70;65.70;;;;;;5000897;28;1127;-68
2023/11/12 13:20:25;;;;;;;;;;;20.70;65.70;;;;;;5001950;28;1438;-67
2023/11/12 13:22:51;;;;;;;;;;;20.70;65.80;;;;;;5003904;28;1472;-68
2023/11/12 13:25:17;;;;;;;;;;;20.70;65.80;;;;;;5001683;28;2159;-68
2023/11/12 13:27:44;;;;;;;;;;;20.70;65.80;;;;;;5004698;28;1952;-67
2023/11/12 13:30:12;;;;;;;;;;;20.70;65.90;;;;;;5001120;28;1895;-67
2023/11/12 13:32:39;;;;;;;;;;;20.70;65.90;;;;;;5000396;28;1316;-67
2023/11/12 13:35:06;;;;;;;;;;;20.60;65.90;;;;;;4997905;28;1409;-68
2023/11/12 13:37:34;;;;;;;;;;;20.70;65.90;;;;;;5000233;28;1470;-67
2023/11/12 13:40:05;;;;;;;;;;;20.60;65.90;;;;;;5001679;28;1427;-67
2023/11/12 13:42:32;;;;;;;;;;;20.60;66.00;;;;;;4999878;28;1351;-67
2023/11/12 13:44:57;;;;;;;;;;;20.60;66.00;;;;;;4997697;28;1483;-67
2023/11/12 13:47:23;;;;;;;;;;;20.60;66.00;;;;;;5017393;28;1448;-67
2023/11/12 13:49:48;;;;;;;;;;;20.60;66.10;;;;;;5003250;28;1906;-67
2023/11/12 13:52:14;;;;;;;;;;;20.60;66.10;;;;;;5018081;28;1385;-67
2023/11/12 13:54:43;;;;;;;;;;;20.60;66.10;;;;;;5002384;28;1406;-68
2023/11/12 13:57:09;;;;;;;;;;;20.60;66.10;;;;;;5005132;28;1471;-68
2023/11/12 13:59:35;;;;;;;;;;;20.60;66.20;;;;;;5000247;28;1317;-68
2023/11/12 14:02:00;;;;;;;;;;;20.60;66.20;;;;;;5000707;28;1371;-67
2023/11/12 14:04:26;;;;;;;;;;;20.60;66.20;;;;;;5001603;28;1326;-68
2023/11/12 14:06:52;;;;;;;;;;;20.60;66.20;;;;;;5000486;28;1251;-68
2023/11/12 14:09:17;;;;;;;;;;;20.60;66.20;;;;;;5002896;28;1903;-68
2023/11/12 14:11:43;;;;;;;;;;;20.60;66.20;;;;;;5000279;28;1390;-67
2023/11/12 14:14:09;;;;;;;;;;;20.60;66.20;;;;;;4999946;28;1132;-66
2023/11/12 14:16:36;;;;;;;;;;;20.60;66.20;;;;;;4997165;28;1546;-66
2023/11/12 14:19:10;;;;;;;;;;;20.60;66.20;;;;;;4999859;28;1494;-67
2023/11/12 14:21:41;;;;;;;;;;;20.60;66.10;;;;;;5000258;28;1375;-67
2023/11/12 14:24:07;;;;;;;;;;;20.60;66.20;;;;;;5000621;28;1183;-67
2023/11/12 14:26:33;;;;;;;;;;;20.60;66.20;;;;;;4998473;28;1591;-66
2023/11/12 14:29:00;;;;;;;;;;;20.60;66.10;;;;;;5003534;28;1960;-67